createdAt,value
2023-03-26T00:01:51.365Z,62.39
2023-03-26T00:06:56.250Z,62.38
2023-03-26T00:12:00.100Z,64.04
2023-03-26T00:17:04.689Z,65.00
2023-03-26T00:22:11.507Z,65.53
2023-03-26T00:27:15.349Z,64.27
2023-03-26T00:32:19.109Z,61.87
2023-03-26T00:37:27.095Z,63.04
2023-03-26T00:42:32.380Z,65.63
2023-03-26T00:47:36.748Z,66.45
2023-03-26T00:52:40.707Z,66.27
2023-03-26T00:57:46.451Z,66.73
2023-03-26T01:02:50.735Z,66.70
2023-03-26T01:07:54.655Z,67.56
2023-03-26T01:12:58.886Z,68.07
2023-03-26T01:18:10.287Z,68.25
2023-03-26T01:23:24.221Z,68.12
2023-03-26T01:28:33.591Z,68.27
2023-03-26T01:34:06.725Z,68.97
2023-03-26T01:39:40.902Z,69.61
2023-03-26T01:45:03.925Z,68.13
2023-03-26T01:50:09.269Z,64.62
2023-03-26T01:55:14.772Z,63.19
2023-03-26T02:00:36.348Z,65.42
2023-03-26T02:05:56.870Z,67.38
2023-03-26T02:11:11.938Z,68.06
2023-03-26T02:16:18.109Z,68.37
2023-03-26T02:21:26.448Z,68.03
2023-03-26T02:26:34.240Z,67.72
2023-03-26T02:31:38.151Z,68.36
2023-03-26T02:36:43.516Z,68.21
2023-03-26T02:41:47.201Z,68.06
2023-03-26T02:46:51.067Z,68.46
2023-03-26T02:51:56.737Z,68.61
2023-03-26T02:57:01.097Z,68.97
2023-03-26T03:02:06.586Z,70.12
2023-03-26T03:07:14.827Z,71.70
2023-03-26T03:12:18.401Z,71.25
2023-03-26T03:17:22.232Z,71.15
2023-03-26T03:22:26.288Z,71.53
2023-03-26T03:27:30.278Z,72.44
2023-03-26T03:32:34.685Z,72.49
2023-03-26T03:37:38.512Z,72.37
2023-03-26T03:42:42.274Z,71.76
2023-03-26T03:47:46.252Z,72.33
2023-03-26T03:52:51.146Z,72.71
2023-03-26T03:57:56.604Z,73.68
2023-03-26T04:03:06.572Z,74.37
2023-03-26T04:08:10.575Z,75.40
2023-03-26T04:13:16.046Z,75.03
2023-03-26T04:18:20.792Z,75.08
2023-03-26T04:23:24.951Z,74.87
2023-03-26T04:29:03.142Z,74.53
2023-03-26T04:34:14.575Z,73.73
2023-03-26T04:39:18.510Z,73.71
2023-03-26T04:44:25.241Z,73.45
2023-03-26T04:49:29.016Z,73.65
2023-03-26T04:54:32.681Z,73.23
2023-03-26T04:59:37.425Z,72.77
2023-03-26T05:04:41.252Z,72.65
2023-03-26T05:09:45.038Z,72.35
2023-03-26T05:14:48.581Z,73.37
2023-03-26T05:19:52.910Z,73.03
2023-03-26T05:24:56.791Z,72.73
2023-03-26T05:30:06.566Z,73.24
2023-03-26T05:35:11.198Z,73.54
2023-03-26T05:40:17.568Z,73.65
2023-03-26T05:45:22.770Z,72.04
2023-03-26T05:50:26.568Z,67.69
2023-03-26T05:55:30.292Z,66.63
2023-03-26T06:00:34.144Z,67.70
2023-03-26T06:05:39.677Z,68.73
2023-03-26T06:10:44.336Z,69.60
2023-03-26T06:15:48.542Z,70.02
2023-03-26T06:20:54.549Z,70.77
2023-03-26T06:26:00.333Z,70.85
2023-03-26T06:31:04.267Z,70.49
2023-03-26T06:36:08.513Z,70.22
2023-03-26T06:41:12.882Z,69.90
2023-03-26T06:46:17.103Z,69.52
2023-03-26T06:51:21.804Z,68.89
2023-03-26T06:56:25.929Z,68.44
2023-03-26T07:01:30.160Z,68.69
2023-03-26T07:06:35.081Z,68.67
2023-03-26T07:11:39.045Z,68.60
2023-03-26T07:16:43.131Z,67.93
2023-03-26T07:21:48.983Z,67.24
2023-03-26T07:27:21.602Z,66.94
2023-03-26T07:32:59.461Z,67.43
2023-03-26T07:38:38.337Z,67.21
2023-03-26T07:44:12.158Z,67.44
2023-03-26T07:49:18.385Z,67.38
2023-03-26T07:54:25.357Z,66.98
2023-03-26T08:00:18.101Z,66.57
2023-03-26T08:05:35.270Z,66.48
2023-03-26T08:11:11.885Z,66.26
2023-03-26T08:16:37.026Z,66.32
2023-03-26T08:22:02.827Z,66.15
2023-03-26T08:27:38.564Z,65.87
2023-03-26T08:32:49.712Z,64.71
2023-03-26T08:37:54.424Z,64.47
2023-03-26T08:43:30.578Z,64.27
2023-03-26T08:49:02.315Z,64.34
2023-03-26T08:54:14.572Z,64.21
2023-03-26T09:00:22.608Z,64.31
2023-03-26T09:06:17.408Z,64.72
2023-03-26T09:11:46.204Z,64.16
2023-03-26T09:17:01.157Z,63.30
2023-03-26T09:22:41.998Z,63.13
2023-03-26T09:28:16.690Z,63.82
2023-03-26T09:34:30.528Z,65.05
2023-03-26T09:39:47.434Z,65.90
2023-03-26T09:45:32.898Z,65.97
2023-03-26T09:51:17.739Z,66.06
2023-03-26T09:56:45.764Z,66.45
2023-03-26T10:02:08.432Z,65.99
2023-03-26T10:07:53.923Z,64.64
2023-03-26T10:13:15.012Z,62.62
2023-03-26T10:18:54.276Z,62.42
2023-03-26T10:24:21.552Z,62.38
2023-03-26T10:30:10.651Z,62.16
2023-03-26T10:35:58.634Z,60.05
2023-03-26T10:41:25.315Z,59.42
2023-03-26T10:47:02.530Z,62.67
2023-03-26T10:52:41.661Z,63.04
2023-03-26T10:57:58.298Z,61.68
2023-03-26T11:03:29.760Z,60.14
2023-03-26T11:08:44.278Z,59.58
2023-03-26T11:14:09.532Z,63.17
2023-03-26T11:20:17.935Z,62.82
2023-03-26T11:25:39.352Z,61.81
2023-03-26T11:31:16.947Z,60.40
2023-03-26T11:36:30.914Z,58.57
2023-03-26T11:41:35.168Z,60.27
2023-03-26T11:46:44.453Z,59.91
2023-03-26T11:51:49.737Z,59.96
2023-03-26T11:57:07.217Z,59.38
2023-03-26T12:02:14.088Z,58.54
2023-03-26T12:07:23.983Z,58.28
2023-03-26T12:12:38.805Z,58.54
2023-03-26T12:17:43.576Z,58.95
2023-03-26T12:22:48.210Z,60.20
2023-03-26T12:28:14.066Z,63.55
2023-03-26T12:33:28.016Z,62.16
2023-03-26T12:38:36.099Z,61.95
2023-03-26T12:44:50.182Z,62.32
2023-03-26T12:49:16.893Z,62.91
2023-03-26T12:55:12.235Z,62.18
2023-03-26T13:00:48.123Z,61.96
2023-03-26T13:06:10.967Z,61.53
2023-03-26T13:11:38.188Z,59.94
2023-03-26T13:16:47.098Z,60.04
2023-03-26T13:22:05.495Z,62.49
2023-03-26T13:27:44.737Z,61.49
2023-03-26T13:33:12.833Z,59.01
2023-03-26T13:38:24.824Z,59.88
2023-03-26T13:44:23.885Z,61.92
2023-03-26T13:49:52.424Z,61.98
2023-03-26T13:55:26.337Z,60.59
2023-03-26T14:00:58.823Z,60.78
2023-03-26T14:06:23.861Z,59.54
2023-03-26T14:12:32.475Z,56.64
2023-03-26T14:17:53.759Z,61.51
2023-03-26T14:23:28.638Z,59.27
2023-03-26T14:29:06.710Z,58.24
2023-03-26T14:34:58.369Z,61.55
2023-03-26T14:40:17.415Z,59.70
2023-03-26T14:45:23.886Z,58.93
2023-03-26T14:51:04.130Z,61.44
2023-03-26T14:56:34.054Z,62.28
2023-03-26T15:01:56.564Z,60.75
2023-03-26T15:07:24.092Z,60.33
2023-03-26T15:12:35.940Z,60.05
2023-03-26T15:18:28.793Z,59.67
2023-03-26T15:24:31.248Z,59.82
2023-03-26T15:30:17.439Z,62.97
2023-03-26T15:35:58.760Z,59.86
2023-03-26T15:41:40.022Z,58.51
2023-03-26T15:47:28.040Z,60.75
2023-03-26T15:53:05.351Z,63.01
2023-03-26T15:58:44.580Z,62.84
2023-03-26T16:04:01.919Z,62.99
2023-03-26T16:09:23.665Z,60.96
2023-03-26T16:14:36.909Z,60.18
2023-03-26T16:20:10.383Z,59.62
2023-03-26T16:25:33.579Z,58.14
2023-03-26T16:30:38.611Z,58.19
2023-03-26T16:36:34.807Z,59.85
2023-03-26T16:41:50.425Z,61.33
2023-03-26T16:47:35.083Z,65.43
2023-03-26T16:53:01.241Z,66.53
2023-03-26T16:58:30.003Z,64.74
2023-03-26T17:03:45.189Z,65.96
2023-03-26T17:09:00.919Z,67.31
2023-03-26T17:14:41.733Z,67.34
2023-03-26T17:20:33.882Z,66.31
2023-03-26T17:25:57.773Z,66.19
2023-03-26T17:31:05.079Z,63.30
2023-03-26T17:36:12.019Z,63.06
2023-03-26T17:41:54.881Z,63.38
2023-03-26T17:47:01.751Z,63.62
2023-03-26T17:52:48.439Z,63.87
2023-03-26T17:57:59.341Z,63.80
2023-03-26T18:03:26.095Z,64.75
2023-03-26T18:09:12.354Z,65.96
2023-03-26T18:14:33.723Z,66.74
2023-03-26T18:19:54.606Z,66.62
2023-03-26T18:25:02.493Z,66.89
2023-03-26T18:30:25.026Z,66.78
2023-03-26T18:35:52.325Z,67.58
2023-03-26T18:40:57.604Z,67.12
2023-03-26T18:46:04.406Z,65.29
2023-03-26T18:51:09.617Z,65.70
2023-03-26T18:56:32.021Z,66.10
2023-03-26T19:01:38.420Z,65.92
2023-03-26T19:06:44.742Z,65.96
2023-03-26T19:11:57.395Z,66.14
2023-03-26T19:17:05.015Z,66.82
2023-03-26T19:22:12.385Z,67.30
2023-03-26T19:27:17.407Z,66.74
2023-03-26T19:32:32.702Z,66.37
2023-03-26T19:37:51.719Z,65.89
2023-03-26T19:42:58.834Z,65.96
2023-03-26T19:48:15.489Z,66.26
2023-03-26T19:53:19.563Z,66.69
2023-03-26T19:58:24.192Z,66.50
2023-03-26T20:03:38.698Z,66.21
2023-03-26T20:08:43.174Z,66.11
2023-03-26T20:13:47.142Z,65.84
2023-03-26T20:18:58.024Z,65.35
2023-03-26T20:24:02.197Z,64.69
2023-03-26T20:29:06.220Z,64.80
2023-03-26T20:34:20.910Z,64.87
2023-03-26T20:39:25.890Z,64.72
2023-03-26T20:44:29.478Z,64.93
2023-03-26T20:49:33.047Z,64.75
2023-03-26T20:54:37.149Z,64.38
2023-03-26T20:59:40.994Z,63.99
2023-03-26T21:04:45.406Z,63.68
2023-03-26T21:09:49.577Z,63.48
2023-03-26T21:14:55.931Z,63.07
2023-03-26T21:20:09.329Z,62.43
2023-03-26T21:25:49.007Z,61.57
2023-03-26T21:30:53.533Z,61.25
2023-03-26T21:36:00.594Z,60.92
2023-03-26T21:41:05.201Z,61.05
2023-03-26T21:46:10.186Z,61.91
2023-03-26T21:51:19.722Z,62.46
2023-03-26T21:56:50.466Z,62.85
2023-03-26T22:02:21.946Z,62.62
2023-03-26T22:07:58.939Z,63.70
2023-03-26T22:13:02.592Z,63.87
2023-03-26T22:18:07.774Z,63.85
2023-03-26T22:23:12.367Z,63.32
2023-03-26T22:28:16.517Z,63.32
2023-03-26T22:33:20.433Z,63.64
2023-03-26T22:38:24.664Z,63.73
2023-03-26T22:43:29.050Z,63.70
2023-03-26T22:48:33.590Z,63.53
2023-03-26T22:53:37.515Z,63.45
2023-03-26T22:58:42.591Z,63.84
2023-03-26T23:03:47.108Z,63.91
2023-03-26T23:08:50.618Z,64.37
2023-03-26T23:13:54.213Z,64.06
2023-03-26T23:18:58.344Z,65.65
2023-03-26T23:24:02.214Z,66.55
2023-03-26T23:29:10.004Z,67.07
2023-03-26T23:34:13.715Z,66.30
2023-03-26T23:39:17.759Z,66.68
2023-03-26T23:44:21.490Z,66.77
2023-03-26T23:49:25.396Z,66.51
2023-03-26T23:54:30.458Z,65.66
2023-03-26T23:59:35.916Z,65.87
